Time;durP1;ratioP1;P1;durP2;ratioP2;P2;SDS_P1;SDS_P2;PMS_P1;PMS_P2;Temp;Humidity;BMP_temperature;BMP_pressure;BME280_temperature;BME280_humidity;BME280_pressure;Samples;Min_cycle;Max_cycle;Signal;HPM_P1;HPM_P2
2024/04/08 00:01:45;;;;;;;8.65;2.35;;;14.80;99.90;;;;;;4992542;28;20038;-78
2024/04/08 00:04:10;;;;;;;9.20;2.40;;;14.70;99.90;;;;;;4991573;28;20081;-77
2024/04/08 00:06:36;;;;;;;10.73;2.50;;;14.70;99.90;;;;;;4990154;28;20084;-76
2024/04/08 00:09:03;;;;;;;8.20;2.58;;;14.70;99.90;;;;;;4990680;28;20137;-78
2024/04/08 00:11:29;;;;;;;7.90;2.53;;;14.80;99.90;;;;;;4990263;28;20046;-77
2024/04/08 00:13:54;;;;;;;8.98;2.58;;;14.70;99.90;;;;;;4990881;28;20053;-76
2024/04/08 00:16:20;;;;;;;7.15;2.67;;;14.70;99.90;;;;;;4989521;28;20042;-77
2024/04/08 00:18:46;;;;;;;8.77;2.50;;;14.70;99.90;;;;;;4996919;28;20517;-77
2024/04/08 00:21:11;;;;;;;6.78;2.75;;;14.70;99.90;;;;;;4989564;28;20495;-77
2024/04/08 00:23:37;;;;;;;8.05;2.30;;;14.70;99.90;;;;;;4989977;28;20075;-77
2024/04/08 00:26:06;;;;;;;6.68;2.38;;;14.60;99.90;;;;;;5014075;28;20042;-76
2024/04/08 00:28:37;;;;;;;6.32;2.40;;;14.60;99.90;;;;;;4993395;28;20049;-77
2024/04/08 00:31:07;;;;;;;5.93;2.45;;;14.60;99.90;;;;;;5016366;28;20045;-77
2024/04/08 00:33:34;;;;;;;9.57;2.63;;;14.60;99.90;;;;;;4995725;28;20756;-77
2024/04/08 00:36:00;;;;;;;7.22;2.30;;;14.60;99.90;;;;;;4990339;28;20046;-77
2024/04/08 00:38:26;;;;;;;6.22;2.30;;;14.60;99.90;;;;;;4990988;28;20137;-77
2024/04/08 00:40:52;;;;;;;10.52;3.03;;;14.60;99.90;;;;;;4991146;28;20527;-77
2024/04/08 00:43:17;;;;;;;7.97;2.20;;;14.50;99.90;;;;;;4996273;28;20046;-76
2024/04/08 00:45:46;;;;;;;10.20;2.60;;;14.60;99.90;;;;;;4993643;28;20576;-77
2024/04/08 00:48:13;;;;;;;5.88;2.50;;;14.50;99.90;;;;;;4994939;28;20043;-76
2024/04/08 00:50:42;;;;;;;10.13;2.58;;;14.50;99.90;;;;;;4989915;28;20483;-76
2024/04/08 00:53:08;;;;;;;4.47;2.20;;;14.50;99.90;;;;;;5005908;28;20442;-77
2024/04/08 00:55:36;;;;;;;6.60;2.40;;;14.50;99.90;;;;;;4989487;28;20046;-77
2024/04/08 00:58:03;;;;;;;5.88;2.25;;;14.50;99.90;;;;;;4992832;28;20101;-77
2024/04/08 01:00:29;;;;;;;7.43;2.70;;;14.50;99.90;;;;;;4995227;28;20046;-77
2024/04/08 01:02:58;;;;;;;8.13;2.40;;;14.50;99.90;;;;;;4992265;28;20499;-77
2024/04/08 01:05:24;;;;;;;10.23;2.63;;;14.50;99.90;;;;;;4991085;28;20388;-77
2024/04/08 01:07:50;;;;;;;6.80;2.00;;;14.50;99.90;;;;;;4992649;28;20399;-77
2024/04/08 01:10:16;;;;;;;6.82;2.70;;;14.40;99.90;;;;;;4999531;28;20048;-77
2024/04/08 01:12:42;;;;;;;5.78;2.58;;;14.50;99.90;;;;;;4992282;28;20038;-77
2024/04/08 01:15:08;;;;;;;8.45;2.88;;;14.40;99.90;;;;;;5008525;28;20041;-77
2024/04/08 01:17:34;;;;;;;8.60;3.10;;;14.40;99.90;;;;;;4993401;28;20042;-77
2024/04/08 01:19:59;;;;;;;6.75;2.33;;;14.40;99.90;;;;;;4992261;28;20113;-77
2024/04/08 01:22:30;;;;;;;8.02;2.60;;;14.40;99.90;;;;;;4994643;28;20038;-77
2024/04/08 01:24:58;;;;;;;7.35;2.88;;;14.40;99.90;;;;;;4972352;28;20038;-77
2024/04/08 01:27:24;;;;;;;7.43;3.00;;;14.40;99.90;;;;;;4995797;28;20047;-77
2024/04/08 01:29:50;;;;;;;7.97;2.78;;;14.40;99.90;;;;;;4992599;28;20507;-77
2024/04/08 01:32:16;;;;;;;8.68;2.78;;;14.40;99.90;;;;;;4994873;28;20042;-77
2024/04/08 01:34:41;;;;;;;5.30;2.83;;;14.40;99.90;;;;;;4994737;28;20085;-77
2024/04/08 01:37:07;;;;;;;9.00;2.70;;;14.40;99.90;;;;;;4999775;28;20575;-77
2024/04/08 01:39:32;;;;;;;7.55;2.83;;;14.40;99.90;;;;;;4997028;28;20049;-77
2024/04/08 01:41:58;;;;;;;7.00;2.88;;;14.40;99.90;;;;;;5001927;28;20041;-77
2024/04/08 01:44:24;;;;;;;6.10;2.67;;;14.40;99.90;;;;;;5002632;28;20038;-77
2024/04/08 01:46:50;;;;;;;5.07;2.50;;;14.40;99.90;;;;;;4998041;28;20034;-77
2024/04/08 01:49:15;;;;;;;5.40;2.92;;;14.40;99.90;;;;;;5000310;28;20714;-77
2024/04/08 01:51:41;;;;;;;7.05;2.80;;;14.40;99.90;;;;;;4996091;28;20133;-77
2024/04/08 01:54:12;;;;;;;6.60;2.88;;;14.40;99.90;;;;;;4997621;28;20488;-76
2024/04/08 01:56:38;;;;;;;7.55;3.00;;;14.40;99.90;;;;;;5073510;22;20041;-77
2024/04/08 01:59:03;;;;;;;9.45;3.22;;;14.40;99.90;;;;;;5049192;28;20037;-77
2024/04/08 02:01:29;;;;;;;7.30;2.85;;;14.40;99.90;;;;;;5051379;28;20082;-77
2024/04/08 02:03:54;;;;;;;7.00;2.53;;;14.40;99.90;;;;;;5049937;28;20481;-77
2024/04/08 02:06:20;;;;;;;7.97;3.45;;;14.40;99.90;;;;;;5033299;28;20041;-77
2024/04/08 02:08:45;;;;;;;7.57;2.92;;;14.40;99.90;;;;;;5039677;28;20529;-77
2024/04/08 02:11:11;;;;;;;6.78;3.00;;;14.40;99.90;;;;;;5045777;28;20136;-78
2024/04/08 02:13:37;;;;;;;5.60;2.75;;;14.30;99.90;;;;;;5034035;28;20037;-77
2024/04/08 02:16:07;;;;;;;7.60;2.90;;;14.40;99.90;;;;;;5042599;28;20037;-78
2024/04/08 02:18:33;;;;;;;8.27;3.70;;;14.40;99.90;;;;;;5052586;28;20044;-77
2024/04/08 02:20:59;;;;;;;8.43;3.00;;;14.40;99.90;;;;;;5051567;28;20041;-77
2024/04/08 02:23:25;;;;;;;8.43;2.97;;;14.40;99.90;;;;;;5038169;28;20052;-77
2024/04/08 02:25:50;;;;;;;8.60;3.33;;;14.40;99.90;;;;;;5045463;28;20481;-78
2024/04/08 02:28:16;;;;;;;8.88;3.30;;;14.40;99.90;;;;;;5042681;28;20045;-78
2024/04/08 02:30:42;;;;;;;8.35;3.17;;;14.40;99.90;;;;;;5041846;28;20052;-78
2024/04/08 02:33:07;;;;;;;7.25;3.20;;;14.40;99.90;;;;;;5022525;28;20116;-78
2024/04/08 02:35:37;;;;;;;7.05;3.20;;;14.40;99.90;;;;;;5044911;28;20033;-79
2024/04/08 02:38:04;;;;;;;10.23;3.55;;;14.40;99.90;;;;;;5051129;28;20382;-78
2024/04/08 02:40:34;;;;;;;7.88;3.15;;;14.40;99.90;;;;;;5046874;28;20037;-78
2024/04/08 02:43:02;;;;;;;6.25;3.20;;;14.30;99.90;;;;;;5047689;28;20040;-78
2024/04/08 02:45:27;;;;;;;10.77;4.10;;;14.40;99.90;;;;;;5023086;28;20037;-78
2024/04/08 02:47:53;;;;;;;8.18;2.95;;;14.40;99.90;;;;;;5040286;28;20124;-78
2024/04/08 02:50:19;;;;;;;7.95;3.42;;;14.30;99.90;;;;;;5042524;28;20047;-78
2024/04/08 02:52:45;;;;;;;8.65;3.78;;;14.40;99.90;;;;;;5045497;28;20525;-78
2024/04/08 02:55:11;;;;;;;8.77;3.55;;;14.30;99.90;;;;;;5042586;28;20045;-78
2024/04/08 02:57:37;;;;;;;9.27;3.63;;;14.30;99.90;;;;;;5039793;28;20171;-78
2024/04/08 03:00:03;;;;;;;8.02;3.63;;;14.30;99.90;;;;;;5043570;28;20119;-78
2024/04/08 03:02:28;;;;;;;7.13;3.40;;;14.30;99.90;;;;;;5026466;28;20454;-78
2024/04/08 03:04:54;;;;;;;8.93;3.70;;;14.30;99.90;;;;;;5044338;28;20032;-78
2024/04/08 03:07:19;;;;;;;8.98;4.03;;;14.30;99.90;;;;;;5046805;28;20393;-78
2024/04/08 03:09:50;;;;;;;10.00;3.17;;;14.30;99.90;;;;;;5047399;28;20041;-78
2024/04/08 03:12:15;;;;;;;7.93;3.40;;;14.30;99.90;;;;;;5050544;28;20048;-78
2024/04/08 03:14:41;;;;;;;7.18;3.78;;;14.20;99.90;;;;;;5052417;28;20044;-78
2024/04/08 03:17:07;;;;;;;7.63;3.28;;;14.30;99.90;;;;;;5051295;28;20068;-79
2024/04/08 03:19:32;;;;;;;8.07;3.30;;;14.20;99.90;;;;;;5039774;28;20029;-79
2024/04/08 03:21:58;;;;;;;5.65;3.08;;;14.20;99.90;;;;;;5047244;28;20124;-79
2024/04/08 03:24:23;;;;;;;9.85;3.70;;;14.10;99.90;;;;;;5045986;28;20041;-79
2024/04/08 03:26:49;;;;;;;7.20;3.63;;;14.20;99.90;;;;;;5049135;28;20044;-78
2024/04/08 03:29:15;;;;;;;7.13;3.45;;;14.20;99.90;;;;;;5037996;28;20044;-78
2024/04/08 03:31:41;;;;;;;8.52;3.40;;;14.20;99.90;;;;;;5040025;28;20048;-78
2024/04/08 03:34:06;;;;;;;7.28;3.22;;;14.20;99.90;;;;;;5043835;28;20102;-78
2024/04/08 03:36:32;;;;;;;6.07;3.40;;;14.20;99.90;;;;;;5046366;28;20033;-79
2024/04/08 03:38:57;;;;;;;8.02;3.67;;;14.20;99.90;;;;;;5043205;28;20041;-79
2024/04/08 03:41:23;;;;;;;9.13;3.83;;;14.20;99.90;;;;;;5048073;28;20040;-78
2024/04/08 03:43:48;;;;;;;7.55;3.78;;;14.20;99.90;;;;;;5043473;28;20567;-79
2024/04/08 03:46:14;;;;;;;7.20;3.50;;;14.20;99.90;;;;;;5050717;28;20045;-79
2024/04/08 03:48:40;;;;;;;6.65;3.35;;;14.20;99.90;;;;;;5040833;28;20459;-78
2024/04/08 03:51:10;;;;;;;7.22;2.92;;;14.20;99.90;;;;;;5040366;28;20469;-78
2024/04/08 03:53:36;;;;;;;7.15;3.63;;;14.20;99.90;;;;;;5022113;28;20049;-79
2024/04/08 03:56:09;;;;;;;6.63;3.70;;;14.20;99.90;;;;;;5045651;28;20481;-79
2024/04/08 03:58:37;;;;;;;7.90;3.63;;;14.20;99.90;;;;;;5034760;28;20072;-79
2024/04/08 04:01:03;;;;;;;6.43;3.42;;;14.20;99.90;;;;;;5034017;28;20037;-79
2024/04/08 04:03:28;;;;;;;8.07;3.80;;;14.20;99.90;;;;;;5035475;28;20046;-79
2024/04/08 04:05:54;;;;;;;9.93;3.80;;;14.20;99.90;;;;;;5035501;28;20045;-79
2024/04/08 04:08:19;;;;;;;6.10;3.30;;;14.10;99.90;;;;;;5035982;28;20135;-79
2024/04/08 04:10:45;;;;;;;5.95;3.55;;;14.10;99.90;;;;;;5041710;28;20049;-79
2024/04/08 04:13:11;;;;;;;8.80;3.70;;;14.10;99.90;;;;;;5045278;28;20514;-79
2024/04/08 04:15:36;;;;;;;6.32;3.45;;;14.10;99.90;;;;;;5038757;28;20096;-79
2024/04/08 04:18:02;;;;;;;6.50;3.35;;;14.10;99.90;;;;;;5036399;28;20033;-79
2024/04/08 04:20:39;;;;;;;5.45;3.30;;;14.00;99.90;;;;;;5034995;28;20038;-78
2024/04/08 04:23:05;;;;;;;9.93;3.47;;;14.00;99.90;;;;;;5040629;28;20454;-79
2024/04/08 04:25:30;;;;;;;7.28;3.50;;;14.00;99.90;;;;;;5038367;28;20080;-79
2024/04/08 04:27:57;;;;;;;7.75;3.80;;;14.00;99.90;;;;;;5043778;28;21180;-77
2024/04/08 04:30:23;;;;;;;6.72;3.50;;;14.00;99.90;;;;;;5044200;28;20033;-78
2024/04/08 04:32:48;;;;;;;6.72;3.80;;;14.00;99.90;;;;;;5035258;28;20053;-77
2024/04/08 04:35:14;;;;;;;7.68;3.88;;;14.00;99.90;;;;;;5031434;28;20506;-77
2024/04/08 04:37:40;;;;;;;6.93;3.42;;;14.00;99.90;;;;;;5028830;28;20121;-77
2024/04/08 04:40:08;;;;;;;8.20;3.85;;;14.00;99.90;;;;;;5033962;28;20072;-78
2024/04/08 04:42:33;;;;;;;7.63;3.95;;;14.00;99.90;;;;;;5042963;28;20048;-78
2024/04/08 04:44:59;;;;;;;6.90;3.88;;;14.00;99.90;;;;;;5041785;28;20118;-77
2024/04/08 04:47:25;;;;;;;5.82;3.50;;;14.00;99.90;;;;;;5043861;28;20041;-77
2024/04/08 04:49:50;;;;;;;8.25;4.15;;;14.00;99.90;;;;;;5047811;28;20045;-77
2024/04/08 04:52:16;;;;;;;7.18;3.53;;;13.90;99.90;;;;;;5046488;28;20073;-77
2024/04/08 04:54:41;;;;;;;7.65;4.10;;;13.90;99.90;;;;;;5051569;28;20044;-77
2024/04/08 04:57:07;;;;;;;7.78;4.20;;;13.90;99.90;;;;;;5039883;28;20045;-77
2024/04/08 04:59:33;;;;;;;10.27;3.88;;;14.00;99.90;;;;;;5062062;28;20056;-78
2024/04/08 05:01:59;;;;;;;8.95;4.45;;;13.90;99.90;;;;;;5034387;28;20033;-77
2024/04/08 05:04:24;;;;;;;10.63;4.15;;;14.00;99.90;;;;;;5041432;28;20166;-77
2024/04/08 05:06:50;;;;;;;10.70;4.50;;;14.00;99.90;;;;;;5052693;28;20033;-77
2024/04/08 05:09:15;;;;;;;8.55;4.32;;;14.00;99.90;;;;;;5030115;28;20048;-76
2024/04/08 05:11:41;;;;;;;10.18;4.18;;;14.00;99.90;;;;;;5050000;28;20041;-76
2024/04/08 05:14:07;;;;;;;8.05;4.35;;;13.90;99.90;;;;;;5043010;28;20044;-77
2024/04/08 05:16:33;;;;;;;9.48;4.00;;;13.90;99.90;;;;;;5043975;28;20037;-77
2024/04/08 05:18:58;;;;;;;8.23;4.13;;;13.90;99.90;;;;;;5044699;28;20055;-77
2024/04/08 05:21:24;;;;;;;8.10;4.68;;;14.00;99.90;;;;;;5041464;28;20108;-77
2024/04/08 05:23:49;;;;;;;7.28;4.20;;;13.90;99.90;;;;;;5043049;28;20029;-77
2024/04/08 05:26:16;;;;;;;8.05;3.90;;;13.90;99.90;;;;;;5052039;28;20488;-77
2024/04/08 05:28:42;;;;;;;7.65;3.92;;;14.00;99.90;;;;;;5047506;28;20048;-77
2024/04/08 05:31:07;;;;;;;9.93;4.43;;;14.00;99.90;;;;;;5044046;28;20033;-77
2024/04/08 05:33:33;;;;;;;8.07;4.32;;;13.90;99.90;;;;;;5039842;28;20044;-77
2024/04/08 05:35:59;;;;;;;11.07;4.30;;;13.90;99.90;;;;;;5040130;28;20462;-77
2024/04/08 05:38:25;;;;;;;10.88;4.30;;;13.90;99.90;;;;;;5042904;28;20116;-77
2024/04/08 05:40:51;;;;;;;7.32;3.80;;;14.00;99.90;;;;;;5049945;28;20044;-77
2024/04/08 05:43:17;;;;;;;8.27;4.40;;;14.00;99.90;;;;;;5047427;28;20041;-77
2024/04/08 05:45:43;;;;;;;9.80;4.20;;;14.00;99.90;;;;;;5049414;28;20036;-77
2024/04/08 05:48:08;;;;;;;8.27;3.47;;;13.90;99.90;;;;;;5040467;28;20041;-77
2024/04/08 05:50:34;;;;;;;8.73;3.92;;;13.90;99.90;;;;;;5047286;28;20448;-78
2024/04/08 05:53:02;;;;;;;9.82;4.00;;;13.90;99.90;;;;;;5034550;28;20056;-80
2024/04/08 05:55:30;;;;;;;8.10;3.80;;;13.90;99.90;;;;;;5030739;28;20041;-79
2024/04/08 05:57:56;;;;;;;6.07;3.78;;;14.00;99.90;;;;;;5053862;28;20509;-79
2024/04/08 06:00:21;;;;;;;8.55;3.80;;;13.90;99.90;;;;;;5046222;28;20035;-79
2024/04/08 06:02:49;;;;;;;8.07;3.63;;;13.90;99.90;;;;;;5050812;28;20032;-80
2024/04/08 06:05:19;;;;;;;6.60;3.45;;;14.00;99.90;;;;;;5041897;28;20053;-79
2024/04/08 06:07:48;;;;;;;7.28;3.97;;;13.90;99.90;;;;;;5045855;28;20048;-79
2024/04/08 06:10:18;;;;;;;7.35;3.20;;;13.90;99.90;;;;;;5048586;28;20076;-79
2024/04/08 06:12:44;;;;;;;5.78;3.63;;;13.90;99.90;;;;;;5047484;28;20451;-79
2024/04/08 06:15:09;;;;;;;5.60;3.40;;;13.80;99.90;;;;;;5049394;28;20042;-79
2024/04/08 06:17:35;;;;;;;9.15;4.00;;;13.80;99.90;;;;;;5048004;28;20406;-79
2024/04/08 06:20:02;;;;;;;6.93;4.05;;;13.80;99.90;;;;;;5044612;28;20033;-79
2024/04/08 06:22:28;;;;;;;7.22;3.97;;;13.80;99.90;;;;;;5046246;28;20081;-79
2024/04/08 06:24:54;;;;;;;7.60;4.25;;;13.80;99.90;;;;;;5044350;28;20132;-79
2024/04/08 06:27:19;;;;;;;5.20;3.70;;;13.80;99.90;;;;;;5044670;28;20074;-79
2024/04/08 06:29:48;;;;;;;6.75;3.92;;;13.80;99.90;;;;;;5043561;28;20041;-79
2024/04/08 06:32:13;;;;;;;6.28;3.58;;;13.80;99.90;;;;;;5043064;28;20049;-80
2024/04/08 06:34:39;;;;;;;8.15;3.95;;;13.80;99.90;;;;;;5042914;28;20041;-80
2024/04/08 06:37:05;;;;;;;11.45;4.10;;;13.80;99.90;;;;;;5032257;28;20528;-79
2024/04/08 06:39:30;;;;;;;7.70;3.70;;;13.80;99.90;;;;;;5053142;28;20075;-79
2024/04/08 06:41:56;;;;;;;7.80;3.70;;;13.80;99.90;;;;;;5046095;28;20063;-80
2024/04/08 06:44:22;;;;;;;9.75;4.15;;;13.90;99.90;;;;;;5053838;28;20044;-80
2024/04/08 06:46:47;;;;;;;9.70;4.07;;;13.90;99.90;;;;;;5042480;28;20049;-80
2024/04/08 06:49:13;;;;;;;8.23;4.10;;;13.80;99.90;;;;;;5050106;28;20413;-80
2024/04/08 06:51:38;;;;;;;9.25;4.07;;;13.90;99.90;;;;;;5046611;28;20037;-80
2024/04/08 06:54:04;;;;;;;9.45;4.50;;;13.80;99.90;;;;;;5043917;28;20044;-80
2024/04/08 06:56:30;;;;;;;9.88;4.15;;;13.80;99.90;;;;;;5047298;28;20033;-80
2024/04/08 07:00:18;;;;;;;8.73;4.03;;;13.80;99.90;;;;;;5541776;25;20340;-69
2024/04/08 07:02:46;;;;;;;6.28;3.67;;;13.80;99.90;;;;;;5541751;25;20413;-70
2024/04/08 07:05:13;;;;;;;7.28;4.07;;;13.80;99.90;;;;;;5531795;25;20033;-69
2024/04/08 07:07:40;;;;;;;7.93;4.13;;;13.70;99.90;;;;;;5519969;25;20034;-69
2024/04/08 07:10:07;;;;;;;8.55;3.95;;;13.70;99.90;;;;;;5539139;25;20033;-68
2024/04/08 07:12:33;;;;;;;8.27;4.93;;;13.80;99.90;;;;;;5526803;25;20069;-68
2024/04/08 07:15:02;;;;;;;10.88;4.15;;;13.80;99.90;;;;;;5532617;25;20531;-68
2024/04/08 07:17:29;;;;;;;6.28;3.75;;;13.90;99.90;;;;;;5536286;25;20025;-68
2024/04/08 07:19:57;;;;;;;6.22;3.90;;;14.00;99.90;;;;;;5528841;25;20037;-68
2024/04/08 07:22:24;;;;;;;8.55;4.30;;;14.10;99.90;;;;;;5526915;25;20469;-68
2024/04/08 07:24:51;;;;;;;6.65;4.32;;;14.20;99.90;;;;;;5541949;25;20029;-68
2024/04/08 07:27:17;;;;;;;7.03;4.20;;;14.30;99.90;;;;;;5536511;25;20021;-68
2024/04/08 07:29:44;;;;;;;9.00;3.83;;;14.30;99.90;;;;;;5538785;25;20029;-68
2024/04/08 07:32:11;;;;;;;8.25;3.78;;;14.30;99.90;;;;;;5538897;25;20029;-68
2024/04/08 07:34:38;;;;;;;10.40;4.25;;;14.30;99.90;;;;;;5533593;25;20030;-68
2024/04/08 07:37:05;;;;;;;9.77;4.05;;;14.30;99.90;;;;;;5550357;25;20030;-68
2024/04/08 07:39:32;;;;;;;9.30;4.25;;;14.30;99.90;;;;;;5548338;25;20020;-68
2024/04/08 07:41:59;;;;;;;8.68;4.78;;;14.40;99.90;;;;;;5533298;25;20052;-68
2024/04/08 07:44:27;;;;;;;8.75;4.47;;;14.40;99.90;;;;;;5539003;25;20034;-68
2024/04/08 07:46:54;;;;;;;9.32;4.90;;;14.40;99.90;;;;;;5534887;25;20021;-68
2024/04/08 07:49:21;;;;;;;9.32;5.03;;;14.40;99.90;;;;;;5536424;25;20158;-68
2024/04/08 07:51:48;;;;;;;9.02;4.80;;;14.40;99.90;;;;;;5524768;25;20030;-68
2024/04/08 07:54:15;;;;;;;9.10;4.97;;;14.40;99.90;;;;;;5533800;25;20034;-69
2024/04/08 07:56:42;;;;;;;8.38;5.10;;;14.40;99.90;;;;;;5526319;25;20485;-69
2024/04/08 07:59:08;;;;;;;8.52;4.90;;;14.50;99.90;;;;;;5522860;25;20022;-69
2024/04/08 08:01:35;;;;;;;10.43;5.43;;;14.50;99.90;;;;;;5528165;25;20373;-69
2024/04/08 08:04:03;;;;;;;9.10;5.05;;;14.60;99.90;;;;;;5528346;25;20025;-69
2024/04/08 08:06:30;;;;;;;9.75;5.50;;;14.60;99.90;;;;;;5529155;25;20021;-69
2024/04/08 08:08:57;;;;;;;12.93;5.15;;;14.60;99.90;;;;;;5527199;25;22207;-69
2024/04/08 08:11:24;;;;;;;11.32;6.00;;;14.70;99.90;;;;;;5509597;25;20037;-69
2024/04/08 08:13:50;;;;;;;8.48;5.00;;;14.70;99.90;;;;;;5518766;25;20365;-69
2024/04/08 08:16:17;;;;;;;9.52;5.60;;;14.80;99.90;;;;;;5522438;25;20381;-69
2024/04/08 08:18:45;;;;;;;11.05;6.13;;;14.80;99.90;;;;;;5517653;25;20033;-69
2024/04/08 08:21:12;;;;;;;10.73;5.88;;;14.90;99.90;;;;;;5514248;25;20045;-69
2024/04/08 08:23:39;;;;;;;8.45;5.50;;;14.90;99.90;;;;;;5519956;25;20026;-69
2024/04/08 08:26:06;;;;;;;9.23;5.50;;;15.00;99.90;;;;;;5505164;25;20034;-69
2024/04/08 08:28:33;;;;;;;8.20;5.53;;;15.00;99.90;;;;;;5511451;25;20500;-69
2024/04/08 08:31:00;;;;;;;10.00;5.78;;;14.90;99.90;;;;;;5515313;25;20030;-69
2024/04/08 08:33:26;;;;;;;10.38;5.80;;;15.00;99.90;;;;;;5522382;25;20045;-69
2024/04/08 08:35:53;;;;;;;9.52;5.28;;;15.00;99.90;;;;;;5517327;25;20030;-69
2024/04/08 08:38:20;;;;;;;9.90;5.95;;;15.00;99.90;;;;;;5523566;25;20382;-69
2024/04/08 08:40:53;;;;;;;11.20;5.93;;;15.00;99.90;;;;;;5518169;25;20484;-69
2024/04/08 08:43:29;;;;;;;9.18;5.57;;;15.10;99.90;;;;;;5521136;25;20037;-69
2024/04/08 08:45:57;;;;;;;9.13;5.50;;;15.10;99.90;;;;;;5508963;25;20030;-69
2024/04/08 08:48:24;;;;;;;10.75;6.38;;;15.10;99.90;;;;;;5522178;25;20491;-69
2024/04/08 08:50:51;;;;;;;10.38;6.38;;;15.20;99.90;;;;;;5521860;25;20394;-69
2024/04/08 08:53:18;;;;;;;10.40;5.78;;;15.30;99.90;;;;;;5518975;25;20038;-70
2024/04/08 08:55:46;;;;;;;9.73;5.50;;;15.40;99.90;;;;;;5522964;25;20041;-70
2024/04/08 08:58:13;;;;;;;13.98;6.20;;;15.40;99.90;;;;;;5504892;25;20036;-70
2024/04/08 09:00:40;;;;;;;9.55;5.97;;;15.50;99.90;;;;;;5515170;25;20025;-70
2024/04/08 09:03:13;;;;;;;8.90;5.47;;;15.50;99.90;;;;;;5510604;25;20033;-70
2024/04/08 09:05:41;;;;;;;9.15;6.07;;;15.60;99.90;;;;;;5518147;25;20025;-70
2024/04/08 09:08:08;;;;;;;11.20;6.03;;;15.70;99.90;;;;;;5522524;25;20033;-70
2024/04/08 09:10:46;;;;;;;11.57;6.18;;;15.80;99.90;;;;;;5522249;25;20025;-69
2024/04/08 09:13:26;;;;;;;11.27;5.35;;;15.90;99.90;;;;;;5516287;25;20466;-69
2024/04/08 09:15:53;;;;;;;8.82;5.57;;;16.00;99.90;;;;;;5516958;25;20025;-69
2024/04/08 09:18:21;;;;;;;8.57;5.00;;;16.00;99.90;;;;;;5515953;25;20030;-70
2024/04/08 09:20:48;;;;;;;7.95;4.93;;;16.10;99.90;;;;;;5508184;25;20030;-70
2024/04/08 09:23:15;;;;;;;9.93;4.60;;;16.20;99.90;;;;;;5520602;25;20029;-70
2024/04/08 09:25:42;;;;;;;11.52;5.03;;;16.30;99.90;;;;;;5504965;25;20034;-70
2024/04/08 09:28:11;;;;;;;9.13;4.45;;;16.50;99.90;;;;;;5521877;25;20021;-70
2024/04/08 09:30:39;;;;;;;7.95;3.67;;;16.70;99.90;;;;;;5507513;25;20025;-70
2024/04/08 09:33:09;;;;;;;6.65;4.00;;;16.90;99.90;;;;;;5507711;25;20033;-70
2024/04/08 09:35:38;;;;;;;;;;;17.10;99.90;;;;;;5523175;25;20796;-70
2024/04/08 09:38:07;;;;;;;8.40;3.83;;;17.20;99.90;;;;;;5507706;25;19951;-70
2024/04/08 09:40:35;;;;;;;9.43;4.07;;;17.20;99.90;;;;;;5519343;25;20035;-69
2024/04/08 09:43:03;;;;;;;7.15;3.70;;;17.20;99.90;;;;;;5506586;25;20357;-70
2024/04/08 09:45:31;;;;;;;8.80;4.28;;;17.30;99.90;;;;;;5519929;25;20029;-69
2024/04/08 09:47:58;;;;;;;5.03;3.40;;;17.40;99.90;;;;;;5522201;25;20025;-69
2024/04/08 09:50:27;;;;;;;7.60;3.25;;;17.60;99.90;;;;;;5521622;25;20369;-69
2024/04/08 09:52:55;;;;;;;4.70;2.85;;;17.70;99.90;;;;;;5510565;25;20030;-69
2024/04/08 09:55:27;;;;;;;6.00;2.70;;;17.80;99.90;;;;;;5531785;25;20025;-69
2024/04/08 09:57:58;;;;;;;5.05;3.10;;;17.80;99.90;;;;;;5523850;25;20034;-70
2024/04/08 10:00:34;;;;;;;6.55;3.20;;;17.90;99.90;;;;;;5524188;25;20477;-69
2024/04/08 10:03:08;;;;;;;8.50;3.55;;;17.90;99.90;;;;;;5510145;25;20037;-69
2024/04/08 10:05:35;;;;;;;6.82;3.40;;;17.90;99.90;;;;;;5517107;25;20030;-69
2024/04/08 10:08:03;;;;;;;5.45;4.00;;;17.80;99.90;;;;;;5506000;25;20091;-69
2024/04/08 10:10:31;;;;;;;7.05;3.85;;;17.70;99.90;;;;;;5517970;25;20029;-69
2024/04/08 10:12:59;;;;;;;6.80;4.00;;;17.70;99.90;;;;;;5518111;25;20025;-69
2024/04/08 10:15:31;;;;;;;5.65;3.38;;;17.80;99.90;;;;;;5508873;25;20370;-69
2024/04/08 10:17:58;;;;;;;6.00;2.83;;;18.00;99.90;;;;;;5517324;25;20472;-69
2024/04/08 10:20:27;;;;;;;5.82;3.30;;;18.20;99.90;;;;;;5511312;25;20023;-69
2024/04/08 10:22:54;;;;;;;6.95;3.70;;;18.50;99.90;;;;;;5515963;25;20076;-69
2024/04/08 10:25:34;;;;;;;7.35;3.10;;;18.60;99.90;;;;;;5506139;25;20022;-69
2024/04/08 10:28:04;;;;;;;6.25;3.17;;;18.80;99.90;;;;;;5520986;25;20037;-69
2024/04/08 10:30:33;;;;;;;9.10;3.40;;;19.00;99.90;;;;;;5505770;25;20030;-69
2024/04/08 10:33:00;;;;;;;6.30;3.20;;;19.20;99.90;;;;;;5518338;25;20030;-69
2024/04/08 10:35:27;;;;;;;5.47;2.90;;;19.40;99.90;;;;;;5495072;25;20372;-69
2024/04/08 10:37:54;;;;;;;7.50;2.80;;;19.60;99.90;;;;;;5504146;25;20030;-69
2024/04/08 10:40:22;;;;;;;8.23;2.38;;;19.70;99.90;;;;;;5507240;25;20025;-69
2024/04/08 10:42:53;;;;;;;4.65;2.90;;;19.90;99.90;;;;;;5503934;25;20384;-69
2024/04/08 10:45:20;;;;;;;;;;;20.10;99.90;;;;;;5519066;25;20030;-69
2024/04/08 10:47:47;;;;;;;4.97;2.33;;;20.30;99.90;;;;;;5518466;25;19951;-69
2024/04/08 10:50:14;;;;;;;4.95;1.92;;;20.40;99.90;;;;;;5511604;25;20039;-69
2024/04/08 10:52:41;;;;;;;6.30;2.00;;;20.30;99.90;;;;;;5505431;25;20038;-69
2024/04/08 10:55:09;;;;;;;4.97;2.13;;;20.10;99.90;;;;;;5535696;25;20037;-69
2024/04/08 10:57:36;;;;;;;4.13;2.20;;;19.80;99.90;;;;;;5520741;25;20029;-69
2024/04/08 11:00:04;;;;;;;3.92;2.10;;;19.60;99.90;;;;;;5491971;25;20025;-69
2024/04/08 11:02:34;;;;;;;6.20;2.10;;;19.40;99.90;;;;;;5514962;25;20026;-69
2024/04/08 11:05:02;;;;;;;6.35;2.58;;;19.20;99.90;;;;;;5502977;25;20037;-69
2024/04/08 11:07:35;;;;;;;6.03;2.35;;;19.20;99.90;;;;;;5515843;25;20033;-69
2024/04/08 11:10:10;;;;;;;6.72;2.63;;;19.20;99.90;;;;;;5528578;25;20426;-69
2024/04/08 11:12:37;;;;;;;6.38;2.13;;;19.10;99.90;;;;;;5518170;25;20034;-69
2024/04/08 11:15:05;;;;;;;5.80;2.30;;;19.00;99.90;;;;;;5494625;25;20376;-69
2024/04/08 11:17:34;;;;;;;5.93;2.30;;;18.90;99.90;;;;;;5514959;25;20037;-69
2024/04/08 11:20:04;;;;;;;4.28;2.00;;;18.90;99.90;;;;;;5539237;25;20032;-69
2024/04/08 11:22:32;;;;;;;4.78;2.17;;;18.80;99.90;;;;;;5516277;25;20029;-69
2024/04/08 11:24:59;;;;;;;4.32;2.05;;;18.70;99.90;;;;;;5499569;25;20022;-69
2024/04/08 11:27:26;;;;;;;8.02;2.42;;;18.70;99.90;;;;;;5507328;25;20025;-69
2024/04/08 11:29:53;;;;;;;5.63;2.30;;;18.60;99.90;;;;;;5501956;25;20026;-69
2024/04/08 11:32:21;;;;;;;3.95;1.90;;;18.60;99.90;;;;;;5521242;25;20033;-69
2024/04/08 11:34:49;;;;;;;5.03;1.75;;;18.50;99.90;;;;;;5523069;25;20025;-69
2024/04/08 11:37:16;;;;;;;6.55;2.50;;;18.40;99.90;;;;;;5510086;25;20025;-69
2024/04/08 11:39:44;;;;;;;6.07;1.90;;;18.50;99.90;;;;;;5520002;25;20029;-69
2024/04/08 11:42:12;;;;;;;3.83;2.00;;;18.50;99.90;;;;;;5525666;25;20021;-69
2024/04/08 11:44:43;;;;;;;4.75;2.20;;;18.50;99.90;;;;;;5521654;25;20037;-69
2024/04/08 11:47:17;;;;;;;7.57;1.90;;;18.50;99.90;;;;;;5500171;25;20504;-69
2024/04/08 11:49:44;;;;;;;3.17;1.67;;;18.50;99.90;;;;;;5523560;25;20025;-69
2024/04/08 11:52:12;;;;;;;4.25;1.92;;;18.50;99.90;;;;;;5521962;25;20033;-69
2024/04/08 11:54:42;;;;;;;4.60;2.00;;;18.60;99.90;;;;;;5490277;25;19997;-69
2024/04/08 11:57:09;;;;;;;6.40;2.40;;;18.60;99.90;;;;;;5502371;25;20004;-69
2024/04/08 11:59:37;;;;;;;5.57;2.20;;;18.70;99.90;;;;;;5492277;25;19998;-69
2024/04/08 12:02:04;;;;;;;4.22;2.00;;;18.80;99.90;;;;;;5510830;25;20378;-69
2024/04/08 12:04:31;;;;;;;4.68;2.30;;;18.80;99.90;;;;;;5504208;25;19994;-69
2024/04/08 12:06:59;;;;;;;4.82;1.90;;;18.80;99.90;;;;;;5488770;25;19994;-69
2024/04/08 12:09:26;;;;;;;4.60;1.90;;;18.80;99.90;;;;;;5492382;25;20012;-70
2024/04/08 12:11:53;;;;;;;5.10;2.30;;;18.80;99.90;;;;;;5501073;25;19998;-69
2024/04/08 12:14:20;;;;;;;5.45;1.85;;;18.70;99.90;;;;;;5523339;25;20008;-69
2024/04/08 12:16:47;;;;;;;3.70;1.85;;;18.60;99.90;;;;;;5503603;25;20005;-69
2024/04/08 12:19:14;;;;;;;4.82;2.25;;;18.70;99.90;;;;;;5503778;25;20012;-69
2024/04/08 12:21:41;;;;;;;6.65;2.60;;;18.70;99.90;;;;;;5504401;25;20015;-69
2024/04/08 12:24:08;;;;;;;4.70;2.15;;;18.70;99.90;;;;;;5492453;25;19993;-69
2024/04/08 12:26:35;;;;;;;5.00;1.95;;;18.80;99.90;;;;;;5497601;25;19994;-69
2024/04/08 12:29:04;;;;;;;5.75;2.00;;;18.80;99.90;;;;;;5490112;25;19997;-69
2024/04/08 12:31:31;;;;;;;5.50;2.10;;;18.70;99.90;;;;;;5483425;25;19998;-69
2024/04/08 12:33:58;;;;;;;4.45;2.28;;;18.60;99.90;;;;;;5502271;25;19994;-69
2024/04/08 12:36:25;;;;;;;5.88;2.00;;;18.60;99.90;;;;;;5501562;25;19997;-69
2024/04/08 12:38:52;;;;;;;8.50;2.50;;;18.60;99.90;;;;;;5506306;25;19994;-69
2024/04/08 12:41:20;;;;;;;4.50;2.17;;;18.50;99.90;;;;;;5498165;25;20452;-69
2024/04/08 12:43:47;;;;;;;4.63;2.42;;;18.50;99.90;;;;;;5494382;25;20487;-69
2024/04/08 12:46:14;;;;;;;6.72;2.60;;;18.40;99.90;;;;;;5528820;25;20542;-69